This is the latest recevied weather packets stored in our database for station/object E22ZMG-4. If no packets are shown the sender has not sent any weather packets the latest 10 day(s).
| Time | Temp. | Humidity | Pressure | Rain* | Wind** | Luminosity | Snow |
|---|---|---|---|---|---|---|---|
| 1777254798 | 27.78° C | 53% | 977 hPa | - | - | 0 W/m² | - |
| 1777254173 | 27.78° C | 48% | 977 hPa | - | - | 0 W/m² | - |
| 1777253549 | 28.33° C | 50% | 977 hPa | - | - | 0 W/m² | - |
| 1777252925 | 28.89° C | 50% | 977 hPa | - | - | 0 W/m² | - |
| 1777252300 | 29.44° C | 57% | 976 hPa | - | - | 0 W/m² | - |
| 1777251675 | 30° C | 62% | 976 hPa | - | - | 0 W/m² | - |
| 1777251050 | 29.44° C | 61% | 976 hPa | - | - | 0 W/m² | - |
| 1777250426 | 29.44° C | 58% | 976 hPa | - | - | 0 W/m² | - |
| 1777249801 | 29.44° C | 59% | 976 hPa | - | - | 0 W/m² | - |
| 1777249176 | 29.44° C | 59% | 976 hPa | - | - | 0 W/m² | - |
| 1777248552 | 29.44° C | 59% | 976 hPa | - | - | 0 W/m² | - |
| 1777248286 | 29.44° C | 59% | 976 hPa | - | - | 0 W/m² | - |
| 1777247662 | 29.44° C | 59% | 976 hPa | - | - | 0 W/m² | - |
| 1777247037 | 29.44° C | 59% | 975 hPa | - | - | 0 W/m² | - |
| 1777246412 | 29.44° C | 59% | 975 hPa | - | - | 0 W/m² | - |
| 1777245788 | 29.44° C | 58% | 975 hPa | - | - | 0 W/m² | - |
| 1777245163 | 29.44° C | 58% | 975 hPa | - | - | 0 W/m² | - |
| 1777244538 | 29.44° C | 58% | 975 hPa | - | - | 0 W/m² | - |
| 1777243914 | 29.44° C | 58% | 975 hPa | - | - | 0 W/m² | - |
| 1777243290 | 29.44° C | 58% | 974 hPa | - | - | 0 W/m² | - |
| 1777242664 | 29.44° C | 58% | 974 hPa | - | - | 0 W/m² | - |
| 1777242039 | 29.44° C | 58% | 974 hPa | - | - | 0 W/m² | - |
| 1777241414 | 29.44° C | 58% | 974 hPa | - | - | 0 W/m² | - |
| 1777240790 | 29.44° C | 58% | 974 hPa | - | - | 0 W/m² | - |
| 1777240164 | 29.44° C | 57% | 974 hPa | - | - | 0 W/m² | - |
* Rain since midnight (hover to see other rain measurements)
** Current wind speed in m/s (hover to see current wind gust speed)